Stubblefield, Illinois
Current Conditions -  °F | °C
As of 5:55 AM on Friday 19 Dec 2014 (Local Time) from K3LF Reporting Station
Haze Haze  
Wind Chill: 24°   Ceiling: 3500
Heat Index: 29°   Visibility: 5mi
Dew Point: 26°   Wind: 5mph
Humidity: 88%   Direction: 20°NNE
Pressure: 30.27"   Gusts: NA
Location:  38.895°N, 89.397°W
Report Text: K3LF 191155Z AUTO 02004KT 5SM BR SCT006 OVC035 M02/M03 A3027 RMK AO2 6//// 7//// T10161033 11015 21017
Loading
Personal Weather Stations






























Interactive Weather Map New forecast layout! Learn more

10-Day Weather Forecast

Advertisements
Track Severe Weather on mobile